Lafayette, Mississippi
Current Conditions -  °F | °C
As of 3:15 PM on Monday 22 Dec 2014 (Local Time) from KUOX Reporting Station
Haze Haze  
Wind Chill: 54°   Ceiling: 300
Heat Index: 54°   Visibility: 4mi
Dew Point: 50°   Wind: 10mph
Humidity: 88%   Direction: 140°SE
Pressure: 29.67"   Gusts: 17mph
Location:  34.3453°N, 89.396°W
Report Text: KUOX 222115Z AUTO 14009G15KT 4SM BR OVC003 12/10 A2967 RMK AO2 PWINO PNO
Loading
Personal Weather Stations






























Interactive Weather Map New forecast layout! Learn more

10-Day Weather Forecast

Advertisements
Track Severe Weather on mobile